createdAt,value
2019-03-22T00:01:03.714Z,1.05
2019-03-22T00:03:39.364Z,1.06
2019-03-22T00:06:10.293Z,1.06
2019-03-22T00:08:41.141Z,1.05
2019-03-22T00:11:12.152Z,0.98
2019-03-22T00:13:43.141Z,0.90
2019-03-22T00:16:15.410Z,0.85
2019-03-22T00:18:48.558Z,0.87
2019-03-22T00:21:19.222Z,0.75
2019-03-22T00:23:50.221Z,0.75
2019-03-22T00:26:21.143Z,0.73
2019-03-22T00:28:54.276Z,0.67
2019-03-22T00:31:24.912Z,0.64
2019-03-22T00:33:55.820Z,0.67
2019-03-22T00:36:26.640Z,0.62
2019-03-22T00:38:57.664Z,0.56
2019-03-22T00:41:28.942Z,0.52
2019-03-22T00:44:00.125Z,0.56
2019-03-22T00:46:33.374Z,0.51
2019-03-22T00:49:05.660Z,0.40
2019-03-22T00:51:38.071Z,0.41
2019-03-22T00:54:11.941Z,0.37
2019-03-22T00:56:45.392Z,0.30
2019-03-22T00:59:16.497Z,0.24
2019-03-22T01:01:47.236Z,0.24
2019-03-22T01:04:17.962Z,0.25
2019-03-22T01:06:49.315Z,0.34
2019-03-22T01:09:20.106Z,0.24
2019-03-22T01:11:50.882Z,0.22
2019-03-22T01:14:22.028Z,0.25
2019-03-22T01:16:53.208Z,0.23
2019-03-22T01:19:24.501Z,0.20
2019-03-22T01:21:55.492Z,0.21
2019-03-22T01:24:26.857Z,0.11
2019-03-22T01:26:57.627Z,0.04
2019-03-22T01:29:29.021Z,0.03
2019-03-22T01:31:59.893Z,0.06
2019-03-22T01:34:30.700Z,0.02
2019-03-22T01:37:04.575Z,-0.03
2019-03-22T01:39:34.496Z,-0.12
2019-03-22T01:42:10.061Z,-0.10
2019-03-22T01:44:41.240Z,-0.08
2019-03-22T01:47:12.096Z,-0.08
2019-03-22T01:49:42.977Z,-0.17
2019-03-22T01:52:13.761Z,-0.22
2019-03-22T01:54:44.681Z,-0.25
2019-03-22T01:57:15.796Z,-0.28
2019-03-22T01:59:46.611Z,-0.27
2019-03-22T02:02:17.352Z,-0.28
2019-03-22T02:04:48.761Z,-0.21
2019-03-22T02:07:19.607Z,-0.22
2019-03-22T02:09:50.685Z,-0.26
2019-03-22T02:12:21.582Z,-0.28
2019-03-22T02:14:55.503Z,-0.32
2019-03-22T02:17:26.773Z,-0.41
2019-03-22T02:20:02.264Z,-0.41
2019-03-22T02:22:33.193Z,-0.45
2019-03-22T02:25:05.826Z,-0.41
2019-03-22T02:27:36.956Z,-0.49
2019-03-22T02:30:08.040Z,-0.53
2019-03-22T02:32:40.535Z,-0.53
2019-03-22T02:35:27.440Z,-0.53
2019-03-22T02:37:46.309Z,-0.52
2019-03-22T02:40:17.875Z,-0.55
2019-03-22T02:42:48.727Z,-0.53
2019-03-22T02:45:19.776Z,-0.53
2019-03-22T02:47:51.300Z,-0.61
2019-03-22T02:50:22.575Z,-0.59
2019-03-22T02:52:53.248Z,-0.61
2019-03-22T02:55:24.148Z,-0.54
2019-03-22T02:57:57.690Z,-0.64
2019-03-22T03:00:31.152Z,-0.66
2019-03-22T03:03:02.114Z,-0.71
2019-03-22T03:05:32.854Z,-0.83
2019-03-22T03:08:03.824Z,-0.84
2019-03-22T03:10:34.692Z,-0.83
2019-03-22T03:13:05.753Z,-0.89
2019-03-22T03:15:36.442Z,-0.93
2019-03-22T03:18:07.456Z,-0.96
2019-03-22T03:20:38.254Z,-0.97
2019-03-22T03:23:08.957Z,-1.02
2019-03-22T03:25:42.003Z,-1.06
2019-03-22T03:28:12.856Z,-1.11
2019-03-22T03:30:44.959Z,-1.12
2019-03-22T03:33:15.956Z,-1.14
2019-03-22T03:35:47.243Z,-1.17
2019-03-22T03:38:20.034Z,-1.15
2019-03-22T03:40:53.827Z,-1.21
2019-03-22T03:43:24.541Z,-1.14
2019-03-22T03:45:55.303Z,-1.14
2019-03-22T03:48:26.178Z,-1.15
2019-03-22T03:50:56.956Z,-1.12
2019-03-22T03:53:29.374Z,-1.14
2019-03-22T03:56:00.522Z,-1.16
2019-03-22T03:58:31.218Z,-1.16
2019-03-22T04:01:02.011Z,-1.22
2019-03-22T04:03:33.009Z,-1.20
2019-03-22T04:06:04.106Z,-1.26
2019-03-22T04:08:35.073Z,-1.32
2019-03-22T04:11:05.828Z,-1.36
2019-03-22T04:13:36.831Z,-1.38
2019-03-22T04:16:07.548Z,-1.42
2019-03-22T04:18:38.283Z,-1.41
2019-03-22T04:21:09.100Z,-1.38
2019-03-22T04:23:39.904Z,-1.38
2019-03-22T04:26:10.741Z,-1.44
2019-03-22T04:28:41.798Z,-1.48
2019-03-22T04:31:13.031Z,-1.49
2019-03-22T04:33:46.861Z,-1.42
2019-03-22T04:36:17.570Z,-1.46
2019-03-22T04:38:48.648Z,-1.48
2019-03-22T04:41:19.646Z,-1.59
2019-03-22T04:43:51.009Z,-1.66
2019-03-22T04:46:22.233Z,-1.68
2019-03-22T04:48:53.992Z,-1.66
2019-03-22T04:51:25.927Z,-1.66
2019-03-22T04:54:02.403Z,-1.62
2019-03-22T04:56:34.450Z,-1.65
2019-03-22T04:59:14.174Z,-1.70
2019-03-22T05:01:40.289Z,-1.77
2019-03-22T05:04:11.560Z,-1.79
2019-03-22T05:06:44.401Z,-1.82
2019-03-22T05:09:16.564Z,-1.76
2019-03-22T05:11:48.708Z,-1.69
2019-03-22T05:14:20.063Z,-1.69
2019-03-22T05:16:51.767Z,-1.68
2019-03-22T05:19:24.320Z,-1.65
2019-03-22T05:21:55.768Z,-1.70
2019-03-22T05:24:27.098Z,-1.78
2019-03-22T05:26:59.666Z,-1.82
2019-03-22T05:29:32.507Z,-1.89
2019-03-22T05:32:09.837Z,-1.86
2019-03-22T05:34:43.615Z,-1.86
2019-03-22T05:37:14.752Z,-1.82
2019-03-22T05:39:45.612Z,-1.77
2019-03-22T05:42:16.641Z,-1.72
2019-03-22T05:44:49.689Z,-1.64
2019-03-22T05:47:23.387Z,-1.59
2019-03-22T05:49:55.751Z,-1.55
2019-03-22T05:52:26.762Z,-1.49
2019-03-22T05:54:57.914Z,-1.44
2019-03-22T05:57:28.979Z,-1.36
2019-03-22T06:00:00.429Z,-1.31
2019-03-22T06:02:31.335Z,-1.23
2019-03-22T06:05:02.599Z,-1.13
2019-03-22T06:07:38.173Z,-1.01
2019-03-22T06:10:09.104Z,-0.87
2019-03-22T06:12:40.439Z,-0.67
2019-03-22T06:15:14.202Z,-0.47
2019-03-22T06:17:51.557Z,-0.27
2019-03-22T06:20:17.725Z,-0.08
2019-03-22T06:22:48.618Z,0.16
2019-03-22T06:25:19.336Z,0.47
2019-03-22T06:27:56.275Z,0.73
2019-03-22T06:30:30.297Z,1.00
2019-03-22T06:33:01.406Z,1.28
2019-03-22T06:35:32.380Z,1.44
2019-03-22T06:38:03.512Z,1.74
2019-03-22T06:40:34.455Z,1.98
2019-03-22T06:43:05.932Z,2.38
2019-03-22T06:45:38.865Z,2.66
2019-03-22T06:48:10.261Z,2.95
2019-03-22T06:50:48.451Z,2.99
2019-03-22T06:53:22.373Z,3.35
2019-03-22T06:55:53.380Z,3.35
2019-03-22T06:58:27.652Z,3.54
2019-03-22T07:01:00.194Z,3.82
2019-03-22T07:03:33.777Z,4.11
2019-03-22T07:06:04.886Z,4.45
2019-03-22T07:08:36.152Z,4.50
2019-03-22T07:11:07.182Z,4.89
2019-03-22T07:13:38.148Z,5.25
2019-03-22T07:16:09.448Z,5.83
2019-03-22T07:18:40.613Z,6.40
2019-03-22T07:21:12.084Z,6.59
2019-03-22T07:23:43.169Z,6.77
2019-03-22T07:26:14.110Z,6.79
2019-03-22T07:28:45.352Z,7.32
2019-03-22T07:31:16.250Z,7.94
2019-03-22T07:33:48.127Z,8.88
2019-03-22T07:36:19.148Z,9.31
2019-03-22T07:38:50.449Z,9.88
2019-03-22T07:41:21.478Z,10.92
2019-03-22T07:43:52.705Z,11.57
2019-03-22T07:46:23.802Z,12.77
2019-03-22T07:48:54.967Z,12.89
2019-03-22T07:51:27.467Z,13.16
2019-03-22T07:53:58.479Z,13.65
2019-03-22T07:56:29.537Z,14.14
2019-03-22T07:59:03.723Z,15.06
2019-03-22T08:01:34.802Z,15.06
2019-03-22T08:04:06.808Z,14.85
2019-03-22T08:06:37.849Z,15.11
2019-03-22T08:09:11.027Z,15.84
2019-03-22T08:11:42.369Z,16.46
2019-03-22T08:14:16.922Z,17.13
2019-03-22T08:16:48.030Z,17.47
2019-03-22T08:19:19.011Z,18.61
2019-03-22T08:21:50.401Z,18.77
2019-03-22T08:24:21.528Z,18.63
2019-03-22T08:26:52.862Z,19.31
2019-03-22T08:29:24.208Z,19.80
2019-03-22T08:31:55.502Z,20.34
2019-03-22T08:34:26.867Z,20.66
2019-03-22T08:36:58.028Z,20.88
2019-03-22T08:39:30.177Z,21.47
2019-03-22T08:42:01.539Z,21.61
2019-03-22T08:44:32.889Z,21.92
2019-03-22T08:47:05.742Z,21.86
2019-03-22T08:49:40.287Z,22.98
2019-03-22T08:52:11.650Z,23.94
2019-03-22T08:54:42.915Z,23.47
2019-03-22T08:57:15.624Z,23.57
2019-03-22T08:59:47.256Z,23.24
2019-03-22T09:02:18.564Z,23.17
2019-03-22T09:04:49.678Z,23.68
2019-03-22T09:07:24.448Z,24.81
2019-03-22T09:09:55.890Z,25.86
2019-03-22T09:12:27.062Z,25.93
2019-03-22T09:15:02.332Z,27.27
2019-03-22T09:17:33.365Z,27.28
2019-03-22T09:20:07.488Z,28.42
2019-03-22T09:22:39.157Z,29.37
2019-03-22T09:25:10.492Z,29.86
2019-03-22T09:27:41.520Z,29.77
2019-03-22T09:30:12.996Z,30.88
2019-03-22T09:32:44.078Z,31.54
2019-03-22T09:35:15.439Z,32.77
2019-03-22T09:37:47.049Z,32.20
2019-03-22T09:40:20.872Z,29.68
2019-03-22T09:42:53.140Z,30.40
2019-03-22T09:45:24.401Z,32.56
2019-03-22T09:47:55.919Z,31.77
2019-03-22T09:50:26.809Z,32.37
2019-03-22T09:52:57.605Z,32.07
2019-03-22T09:55:28.533Z,33.31
2019-03-22T09:57:59.277Z,33.31
2019-03-22T10:00:35.432Z,34.54
2019-03-22T10:03:06.473Z,34.19
2019-03-22T10:05:37.431Z,34.84
2019-03-22T10:08:08.251Z,35.25
2019-03-22T10:10:39.665Z,34.84
2019-03-22T10:13:11.098Z,34.59
2019-03-22T10:15:41.872Z,33.36
2019-03-22T10:18:13.015Z,31.84
2019-03-22T10:20:47.371Z,31.17
2019-03-22T10:23:22.394Z,31.10
2019-03-22T10:25:53.095Z,30.36
2019-03-22T10:28:24.987Z,31.47
2019-03-22T10:30:55.724Z,32.80
2019-03-22T10:33:28.268Z,33.06
2019-03-22T10:35:59.288Z,33.19
2019-03-22T10:38:32.055Z,35.01
2019-03-22T10:41:03.587Z,33.36
2019-03-22T10:43:34.354Z,32.88
2019-03-22T10:46:07.859Z,32.21
2019-03-22T10:48:43.318Z,33.44
2019-03-22T10:51:14.391Z,32.49
2019-03-22T10:53:47.295Z,33.98
2019-03-22T10:56:17.739Z,34.38
2019-03-22T10:58:48.510Z,35.34
2019-03-22T11:01:21.283Z,35.79
2019-03-22T11:03:52.942Z,35.25
2019-03-22T11:06:26.366Z,33.82
2019-03-22T11:08:56.579Z,34.97
2019-03-22T11:11:27.600Z,34.81
2019-03-22T11:13:58.703Z,35.30
2019-03-22T11:16:31.484Z,36.40
2019-03-22T11:19:02.208Z,35.73
2019-03-22T11:21:34.742Z,36.71
2019-03-22T11:24:05.401Z,33.82
2019-03-22T11:26:36.701Z,34.59
2019-03-22T11:29:07.589Z,36.74
2019-03-22T11:31:40.175Z,35.84
2019-03-22T11:34:11.633Z,35.78
2019-03-22T11:36:42.862Z,35.31
2019-03-22T11:39:15.708Z,35.23
2019-03-22T11:41:46.555Z,36.35
2019-03-22T11:44:19.579Z,37.10
2019-03-22T11:46:50.118Z,33.54
2019-03-22T11:49:19.712Z,34.49
2019-03-22T11:51:49.169Z,36.37
2019-03-22T11:54:20.413Z,34.55
2019-03-22T11:56:54.319Z,36.23
2019-03-22T11:59:25.243Z,33.66
2019-03-22T12:01:56.136Z,36.08
2019-03-22T12:04:27.119Z,37.36
2019-03-22T12:06:58.239Z,36.76
2019-03-22T12:09:29.420Z,36.07
2019-03-22T12:12:00.211Z,36.88
2019-03-22T12:14:31.304Z,35.43
2019-03-22T12:17:04.839Z,35.40
2019-03-22T12:19:35.643Z,35.56
2019-03-22T12:22:06.961Z,34.46
2019-03-22T12:24:37.916Z,37.12
2019-03-22T12:27:09.311Z,37.88
2019-03-22T12:29:40.233Z,37.71
2019-03-22T12:32:14.566Z,36.77
2019-03-22T12:34:48.130Z,38.03
2019-03-22T12:37:20.303Z,38.21
2019-03-22T12:39:51.203Z,38.52
2019-03-22T12:42:22.341Z,38.09
2019-03-22T12:44:53.418Z,38.85
2019-03-22T12:47:29.527Z,39.20
2019-03-22T12:50:00.499Z,38.41
2019-03-22T12:52:31.491Z,39.15
2019-03-22T12:55:02.224Z,38.71
2019-03-22T12:57:31.956Z,38.47
2019-03-22T13:00:01.838Z,37.32
2019-03-22T13:02:31.536Z,34.98
2019-03-22T13:05:02.638Z,35.24
2019-03-22T13:07:33.768Z,34.03
2019-03-22T13:10:05.884Z,32.64
2019-03-22T13:12:37.293Z,32.28
2019-03-22T13:15:06.932Z,31.25
2019-03-22T13:17:38.041Z,35.08
2019-03-22T13:20:09.828Z,35.45
2019-03-22T13:22:39.463Z,34.30
2019-03-22T13:25:10.551Z,34.65
2019-03-22T13:27:44.327Z,33.87
2019-03-22T13:30:21.373Z,33.94
2019-03-22T13:32:52.458Z,34.78
2019-03-22T13:35:22.201Z,32.08
2019-03-22T13:37:53.189Z,33.50
2019-03-22T13:40:24.226Z,34.17
2019-03-22T13:42:55.298Z,33.43
2019-03-22T13:45:24.882Z,33.05
2019-03-22T13:47:54.672Z,31.67
2019-03-22T13:50:24.258Z,34.33
2019-03-22T13:52:54.991Z,34.63
2019-03-22T13:55:25.969Z,33.94
2019-03-22T13:57:57.233Z,33.53
2019-03-22T14:00:30.906Z,33.42
2019-03-22T14:03:04.971Z,32.50
2019-03-22T14:05:38.757Z,31.77
2019-03-22T14:08:10.294Z,29.94
2019-03-22T14:10:41.397Z,28.40
2019-03-22T14:13:14.265Z,29.68
2019-03-22T14:15:45.269Z,28.84
2019-03-22T14:18:16.108Z,28.99
2019-03-22T14:20:47.106Z,28.58
2019-03-22T14:23:19.945Z,28.12
2019-03-22T14:25:53.426Z,27.39
2019-03-22T14:28:26.115Z,27.27
2019-03-22T14:30:57.013Z,28.39
2019-03-22T14:33:28.391Z,28.75
2019-03-22T14:35:59.571Z,29.28
2019-03-22T14:38:33.215Z,28.05
2019-03-22T14:41:04.253Z,27.34
2019-03-22T14:43:35.425Z,27.58
2019-03-22T14:46:08.478Z,26.94
2019-03-22T14:48:39.646Z,26.88
2019-03-22T14:51:10.652Z,26.65
2019-03-22T14:53:41.908Z,26.71
2019-03-22T14:56:13.028Z,26.15
2019-03-22T14:58:44.293Z,25.84
2019-03-22T15:01:15.571Z,25.54
2019-03-22T15:03:45.279Z,25.17
2019-03-22T15:06:16.685Z,24.59
2019-03-22T15:08:47.729Z,24.70
2019-03-22T15:11:19.658Z,24.15
2019-03-22T15:14:08.520Z,24.03
2019-03-22T15:16:52.295Z,24.10
2019-03-22T15:19:42.603Z,24.11
2019-03-22T15:22:23.327Z,23.88
2019-03-22T15:25:12.391Z,22.78
2019-03-22T15:28:01.813Z,22.10
2019-03-22T15:30:50.760Z,21.34
2019-03-22T15:33:46.936Z,21.75
2019-03-22T15:36:52.112Z,21.86
2019-03-22T15:39:41.143Z,22.05
2019-03-22T15:42:12.132Z,21.93
2019-03-22T15:44:43.617Z,20.98
2019-03-22T15:47:14.701Z,20.66
2019-03-22T15:49:45.875Z,20.46
2019-03-22T15:52:17.139Z,20.59
2019-03-22T15:54:48.286Z,20.27
2019-03-22T15:57:19.304Z,20.25
2019-03-22T15:59:50.275Z,20.14
2019-03-22T16:02:22.355Z,19.90
2019-03-22T16:04:53.267Z,19.58
2019-03-22T16:07:24.693Z,19.45
2019-03-22T16:09:55.762Z,19.27
2019-03-22T16:12:26.989Z,19.07
2019-03-22T16:14:58.502Z,18.90
2019-03-22T16:17:30.734Z,18.96
2019-03-22T16:20:01.748Z,18.74
2019-03-22T16:22:33.824Z,18.76
2019-03-22T16:25:05.849Z,18.48
2019-03-22T16:27:37.865Z,18.53
2019-03-22T16:30:09.270Z,18.57
2019-03-22T16:32:40.390Z,18.50
2019-03-22T16:35:12.676Z,18.43
2019-03-22T16:37:43.834Z,18.11
2019-03-22T16:40:23.890Z,18.19
2019-03-22T16:42:49.024Z,18.10
2019-03-22T16:45:38.471Z,18.13
2019-03-22T16:48:10.553Z,17.83
2019-03-22T16:50:41.830Z,17.88
2019-03-22T16:53:13.135Z,17.65
2019-03-22T16:55:44.126Z,17.78
2019-03-22T16:58:15.383Z,17.88
2019-03-22T17:00:46.835Z,17.56
2019-03-22T17:03:17.898Z,17.67
2019-03-22T17:05:49.375Z,17.61
2019-03-22T17:08:20.419Z,17.50
2019-03-22T17:10:51.506Z,17.35
2019-03-22T17:13:22.637Z,17.17
2019-03-22T17:15:53.722Z,16.97
2019-03-22T17:18:24.727Z,16.81
2019-03-22T17:20:55.850Z,16.64
2019-03-22T17:23:26.724Z,16.42
2019-03-22T17:25:57.716Z,16.15
2019-03-22T17:28:28.727Z,16.01
2019-03-22T17:30:59.452Z,15.76
2019-03-22T17:33:30.761Z,15.53
2019-03-22T17:36:02.223Z,15.41
2019-03-22T17:38:34.304Z,15.22
2019-03-22T17:41:05.533Z,15.05
2019-03-22T17:43:36.715Z,14.83
2019-03-22T17:46:07.845Z,14.64
2019-03-22T17:48:38.960Z,14.45
2019-03-22T17:51:10.185Z,14.26
2019-03-22T17:53:41.405Z,13.93
2019-03-22T17:56:12.724Z,13.85
2019-03-22T17:58:43.982Z,13.50
2019-03-22T18:03:42.131Z,13.40
2019-03-22T18:06:13.168Z,12.97
2019-03-22T18:08:44.284Z,12.80
2019-03-22T18:11:15.594Z,12.80
2019-03-22T18:13:46.650Z,12.64
2019-03-22T18:16:17.766Z,12.53
2019-03-22T18:18:49.090Z,12.39
2019-03-22T18:21:20.312Z,12.29
2019-03-22T18:23:51.677Z,12.21
2019-03-22T18:26:22.725Z,12.10
2019-03-22T18:28:53.912Z,11.99
2019-03-22T18:31:25.076Z,11.88
2019-03-22T18:33:56.136Z,11.63
2019-03-22T18:36:27.266Z,11.55
2019-03-22T18:38:58.240Z,11.46
2019-03-22T18:41:29.515Z,11.37
2019-03-22T18:44:00.413Z,11.23
2019-03-22T18:46:32.268Z,11.05
2019-03-22T18:49:03.366Z,10.93
2019-03-22T18:51:34.777Z,10.77
2019-03-22T18:54:06.829Z,10.80
2019-03-22T18:56:38.281Z,10.73
2019-03-22T18:59:09.306Z,10.37
2019-03-22T19:01:40.541Z,10.37
2019-03-22T19:04:11.785Z,10.32
2019-03-22T19:06:43.288Z,9.98
2019-03-22T19:09:14.451Z,9.83
2019-03-22T19:11:46.480Z,9.73
2019-03-22T19:14:17.679Z,9.68
2019-03-22T19:16:48.917Z,9.55
2019-03-22T19:19:20.297Z,9.40
2019-03-22T19:21:52.600Z,9.30
2019-03-22T19:24:23.743Z,9.13
2019-03-22T19:26:54.831Z,9.01
2019-03-22T19:29:25.997Z,8.97
2019-03-22T19:31:57.113Z,8.96
2019-03-22T19:34:28.382Z,8.85
2019-03-22T19:37:03.316Z,8.77
2019-03-22T19:39:34.437Z,8.67
2019-03-22T19:42:05.541Z,8.58
2019-03-22T19:44:36.659Z,8.56
2019-03-22T19:47:07.850Z,8.42
2019-03-22T19:49:38.981Z,8.32
2019-03-22T19:52:10.306Z,8.20
2019-03-22T19:54:41.227Z,8.12
2019-03-22T19:57:12.152Z,8.05
2019-03-22T19:59:43.318Z,7.93
2019-03-22T20:02:14.361Z,7.95
2019-03-22T20:04:46.295Z,7.90
2019-03-22T20:07:26.515Z,7.93
2019-03-22T20:09:50.401Z,7.83
2019-03-22T20:12:21.775Z,7.73
2019-03-22T20:14:53.458Z,7.73
2019-03-22T20:17:24.875Z,7.64
2019-03-22T20:19:56.223Z,7.58
2019-03-22T20:22:27.418Z,7.51
2019-03-22T20:24:58.762Z,7.38
2019-03-22T20:27:29.720Z,7.29
2019-03-22T20:30:01.044Z,7.17
2019-03-22T20:32:31.998Z,7.09
2019-03-22T20:35:03.012Z,7.05
2019-03-22T20:37:35.188Z,6.91
2019-03-22T20:40:06.652Z,6.84
2019-03-22T20:42:37.746Z,6.74
2019-03-22T20:45:09.282Z,6.92
2019-03-22T20:47:40.341Z,6.81
2019-03-22T20:50:12.468Z,6.73
2019-03-22T20:52:43.347Z,6.66
2019-03-22T20:55:14.675Z,6.57
2019-03-22T20:57:45.723Z,6.55
2019-03-22T21:00:16.926Z,6.58
2019-03-22T21:02:48.021Z,6.50
2019-03-22T21:05:26.951Z,6.34
2019-03-22T21:07:53.409Z,6.21
2019-03-22T21:10:24.522Z,6.16
2019-03-22T21:12:55.642Z,6.17
2019-03-22T21:15:26.685Z,6.05
2019-03-22T21:17:57.907Z,5.98
2019-03-22T21:20:29.106Z,5.87
2019-03-22T21:23:00.699Z,5.81
2019-03-22T21:25:31.858Z,5.72
2019-03-22T21:28:03.969Z,5.67
2019-03-22T21:30:36.308Z,5.72
2019-03-22T21:33:07.445Z,5.66
2019-03-22T21:35:38.578Z,5.63
2019-03-22T21:38:11.128Z,5.54
2019-03-22T21:40:43.367Z,5.55
2019-03-22T21:43:14.659Z,5.50
2019-03-22T21:45:45.823Z,5.45
2019-03-22T21:48:17.159Z,5.34
2019-03-22T21:50:48.331Z,5.31
2019-03-22T21:53:19.385Z,5.24
2019-03-22T21:55:50.530Z,5.21
2019-03-22T21:58:22.017Z,5.16
2019-03-22T22:00:53.153Z,5.08
2019-03-22T22:03:24.501Z,5.03
2019-03-22T22:05:55.870Z,4.94
2019-03-22T22:08:27.313Z,4.89
2019-03-22T22:10:59.947Z,4.85
2019-03-22T22:13:31.036Z,4.74
2019-03-22T22:16:02.128Z,4.77
2019-03-22T22:18:33.435Z,4.74
2019-03-22T22:21:04.340Z,4.74
2019-03-22T22:23:35.497Z,4.77
2019-03-22T22:26:06.676Z,4.68
2019-03-22T22:28:37.837Z,4.48
2019-03-22T22:31:08.887Z,4.41
2019-03-22T22:33:40.125Z,4.45
2019-03-22T22:36:10.996Z,4.42
2019-03-22T22:38:42.431Z,4.33
2019-03-22T22:41:13.603Z,4.29
2019-03-22T22:43:44.950Z,4.25
2019-03-22T22:46:16.033Z,4.23
2019-03-22T22:48:47.023Z,4.17
2019-03-22T22:51:18.010Z,4.10
2019-03-22T22:53:49.208Z,4.14
2019-03-22T22:56:20.222Z,4.07
2019-03-22T22:58:51.408Z,3.97
2019-03-22T23:01:22.989Z,3.96
2019-03-22T23:03:54.587Z,4.01
2019-03-22T23:06:25.629Z,3.97
2019-03-22T23:08:56.694Z,3.82
2019-03-22T23:11:27.885Z,3.72
2019-03-22T23:13:58.766Z,3.64
2019-03-22T23:16:29.702Z,3.53
2019-03-22T23:19:00.574Z,3.46
2019-03-22T23:21:31.753Z,3.42
2019-03-22T23:24:02.887Z,3.37
2019-03-22T23:26:33.946Z,3.34
2019-03-22T23:29:04.986Z,3.32
2019-03-22T23:31:36.081Z,3.28
2019-03-22T23:34:07.105Z,3.21
2019-03-22T23:36:37.868Z,3.23
2019-03-22T23:39:09.600Z,3.19
2019-03-22T23:41:40.575Z,3.12
2019-03-22T23:44:11.755Z,3.02
2019-03-22T23:46:42.898Z,2.90
2019-03-22T23:49:13.826Z,2.85
2019-03-22T23:51:44.715Z,2.80
2019-03-22T23:54:15.743Z,2.78
2019-03-22T23:56:46.890Z,2.79
2019-03-22T23:59:17.989Z,2.80
